createdAt,value
2022-09-02T00:00:02.029Z,589.90
2022-09-02T00:01:02.029Z,571.50
2022-09-02T00:02:02.150Z,550.10
2022-09-02T00:03:02.193Z,529.80
2022-09-02T00:04:01.990Z,530.40
2022-09-02T00:05:01.980Z,530.60
2022-09-02T00:06:01.980Z,525.80
2022-09-02T00:07:01.957Z,537.60
2022-09-02T00:08:01.983Z,534.40
2022-09-02T00:09:01.941Z,545.70
2022-09-02T00:10:01.915Z,558.50
2022-09-02T00:11:01.920Z,571.10
2022-09-02T00:12:01.893Z,549.80
2022-09-02T00:13:01.924Z,551.20
2022-09-02T00:14:01.866Z,554.30
2022-09-02T00:15:01.879Z,553.10
2022-09-02T00:16:01.974Z,565.80
2022-09-02T00:17:01.916Z,568.70
2022-09-02T00:18:01.857Z,591.60
2022-09-02T00:19:01.823Z,602.30
2022-09-02T00:20:01.821Z,605.50
2022-09-02T00:21:01.789Z,608.00
2022-09-02T00:22:01.765Z,621.50
2022-09-02T00:23:01.792Z,608.70
2022-09-02T00:24:01.746Z,596.50
2022-09-02T00:25:01.767Z,591.80
2022-09-02T00:26:01.726Z,597.90
2022-09-02T00:27:01.734Z,595.50
2022-09-02T00:28:01.760Z,592.20
2022-09-02T00:29:01.718Z,595.70
2022-09-02T00:30:01.697Z,610.80
2022-09-02T00:31:01.684Z,629.40
2022-09-02T00:32:01.719Z,640.00
2022-09-02T00:33:01.700Z,651.90
2022-09-02T00:34:01.667Z,649.90
2022-09-02T00:35:01.649Z,634.20
2022-09-02T00:36:01.611Z,621.80
2022-09-02T00:37:01.613Z,607.20
2022-09-02T00:38:01.637Z,594.70
2022-09-02T00:39:01.608Z,591.80
2022-09-02T00:40:01.598Z,583.60
2022-09-02T00:41:01.588Z,590.10
2022-09-02T00:42:01.551Z,609.80
2022-09-02T00:43:01.573Z,631.80
2022-09-02T00:44:01.544Z,624.30
2022-09-02T00:45:01.529Z,638.80
2022-09-02T00:46:01.560Z,603.80
2022-09-02T00:47:01.507Z,582.10
2022-09-02T00:48:01.511Z,585.10
2022-09-02T00:49:01.471Z,575.70
2022-09-02T00:50:01.492Z,574.70
2022-09-02T00:51:01.453Z,550.80
2022-09-02T00:52:01.434Z,550.20
2022-09-02T00:53:01.449Z,562.80
2022-09-02T00:54:01.415Z,558.80
2022-09-02T00:55:01.421Z,536.70
2022-09-02T00:56:01.385Z,551.70
2022-09-02T00:57:01.382Z,511.10
2022-09-02T00:58:01.387Z,497.00
2022-09-02T00:59:01.354Z,497.50
2022-09-02T01:00:01.348Z,494.90
2022-09-02T01:01:01.413Z,476.40
2022-09-02T01:02:01.439Z,459.00
2022-09-02T01:03:01.364Z,429.30
2022-09-02T01:04:01.312Z,436.30
2022-09-02T01:05:01.290Z,388.70
2022-09-02T01:06:01.294Z,383.10
2022-09-02T01:07:01.280Z,396.20
2022-09-02T01:08:01.301Z,373.20
2022-09-02T01:09:01.258Z,383.40
2022-09-02T01:10:01.234Z,383.30
2022-09-02T01:11:01.237Z,379.40
2022-09-02T01:12:01.204Z,385.30
2022-09-02T01:13:01.241Z,387.40
2022-09-02T01:14:01.197Z,408.20
2022-09-02T01:15:01.196Z,420.80
2022-09-02T01:16:01.208Z,401.70
2022-09-02T01:17:01.165Z,400.90
2022-09-02T01:18:01.174Z,419.10
2022-09-02T01:19:01.138Z,419.50
2022-09-02T01:20:01.139Z,409.90
2022-09-02T01:21:01.118Z,410.10
2022-09-02T01:22:01.109Z,407.70
2022-09-02T01:23:01.145Z,406.30
2022-09-02T01:24:01.075Z,370.50
2022-09-02T01:25:01.083Z,367.30
2022-09-02T01:26:01.091Z,365.90
2022-09-02T01:27:01.059Z,361.20
2022-09-02T01:28:01.027Z,375.90
2022-09-02T01:29:01.063Z,389.80
2022-09-02T01:30:01.013Z,417.20
2022-09-02T01:31:00.995Z,437.80
2022-09-02T01:32:01.052Z,433.50
2022-09-02T01:33:00.976Z,430.00
2022-09-02T01:34:00.988Z,418.10
2022-09-02T01:35:00.946Z,414.30
2022-09-02T01:36:00.961Z,405.50
2022-09-02T01:37:00.940Z,423.50
2022-09-02T01:38:00.928Z,423.30
2022-09-02T01:39:00.965Z,410.40
2022-09-02T01:40:00.886Z,411.50
2022-09-02T01:41:00.901Z,406.80
2022-09-02T01:42:00.872Z,412.00
2022-09-02T01:43:00.879Z,424.10
2022-09-02T01:44:00.893Z,424.10
2022-09-02T01:45:00.835Z,411.20
2022-09-02T01:46:00.838Z,408.90
2022-09-02T01:47:00.905Z,410.70
2022-09-02T01:48:00.831Z,414.80
2022-09-02T01:49:00.798Z,393.50
2022-09-02T01:50:00.800Z,369.50
2022-09-02T01:51:00.776Z,351.10
2022-09-02T01:52:00.780Z,348.70
2022-09-02T01:53:00.803Z,350.10
2022-09-02T01:54:00.752Z,341.50
2022-09-02T01:55:00.732Z,337.40
2022-09-02T01:56:00.711Z,336.50
2022-09-02T01:57:00.714Z,333.00
2022-09-02T01:58:00.701Z,348.30
2022-09-02T01:59:00.723Z,352.90
2022-09-02T02:00:00.674Z,348.30
2022-09-02T02:01:00.861Z,337.00
2022-09-02T02:02:00.682Z,356.10
2022-09-02T02:03:00.641Z,360.10
2022-09-02T02:04:00.651Z,382.80
2022-09-02T02:05:00.612Z,389.00
2022-09-02T02:06:00.607Z,420.00
2022-09-02T02:07:00.598Z,435.90
2022-09-02T02:08:00.585Z,433.50
2022-09-02T02:09:00.593Z,440.10
2022-09-02T02:10:00.543Z,437.00
2022-09-02T02:11:00.541Z,437.40
2022-09-02T02:12:00.555Z,433.20
2022-09-02T02:13:00.542Z,434.80
2022-09-02T02:14:00.555Z,431.80
2022-09-02T02:15:00.520Z,405.20
2022-09-02T02:16:00.540Z,406.20
2022-09-02T02:17:00.497Z,421.30
2022-09-02T02:18:00.471Z,417.00
2022-09-02T02:19:00.500Z,400.90
2022-09-02T02:20:00.454Z,388.20
2022-09-02T02:21:00.431Z,386.50
2022-09-02T02:22:00.433Z,374.70
2022-09-02T02:23:00.426Z,381.70
2022-09-02T02:24:00.424Z,387.10
2022-09-02T02:25:00.398Z,378.70
2022-09-02T02:26:00.394Z,395.50
2022-09-02T02:27:00.384Z,406.70
2022-09-02T02:28:00.355Z,406.90
2022-09-02T02:29:00.376Z,413.20
2022-09-02T02:30:00.339Z,425.10
2022-09-02T02:31:00.390Z,432.50
2022-09-02T02:32:00.309Z,429.40
2022-09-02T02:33:00.318Z,431.60
2022-09-02T02:34:00.347Z,402.90
2022-09-02T02:35:00.276Z,371.50
2022-09-02T02:36:00.268Z,372.60
2022-09-02T02:37:00.260Z,376.60
2022-09-02T02:38:03.718Z,377.20
2022-09-02T02:39:00.257Z,367.10
2022-09-02T02:40:00.261Z,355.00
2022-09-02T02:41:00.197Z,365.90
2022-09-02T02:42:00.198Z,394.10
2022-09-02T02:43:00.201Z,390.50
2022-09-02T02:44:00.220Z,381.20
2022-09-02T02:45:00.165Z,351.80
2022-09-02T02:46:00.145Z,335.80
2022-09-02T02:47:00.218Z,335.30
2022-09-02T02:48:00.117Z,362.10
2022-09-02T02:49:00.164Z,353.30
2022-09-02T02:50:00.110Z,343.00
2022-09-02T02:51:00.104Z,367.90
2022-09-02T02:52:00.101Z,374.20
2022-09-02T02:53:00.085Z,355.70
2022-09-02T02:54:00.100Z,376.80
2022-09-02T02:55:00.062Z,375.30
2022-09-02T02:56:00.051Z,381.20
2022-09-02T02:57:00.072Z,379.10
2022-09-02T02:58:00.011Z,379.60
2022-09-02T02:59:00.093Z,381.90
2022-09-02T02:59:59.979Z,402.90
2022-09-02T03:00:59.994Z,404.60
2022-09-02T03:02:00.034Z,420.00
2022-09-02T03:03:00.079Z,417.60
2022-09-02T03:03:59.992Z,416.50
2022-09-02T03:04:59.934Z,433.30
2022-09-02T03:05:59.936Z,419.20
2022-09-02T03:06:59.915Z,425.30
2022-09-02T03:07:59.914Z,430.60
2022-09-02T03:08:59.938Z,438.60
2022-09-02T03:09:59.896Z,426.10
2022-09-02T03:10:59.877Z,407.40
2022-09-02T03:11:59.878Z,398.00
2022-09-02T03:12:59.859Z,407.90
2022-09-02T03:13:59.874Z,406.10
2022-09-02T03:14:59.833Z,399.20
2022-09-02T03:15:59.826Z,398.80
2022-09-02T03:16:59.822Z,398.10
2022-09-02T03:17:59.783Z,397.80
2022-09-02T03:18:59.819Z,384.50
2022-09-02T03:19:59.764Z,351.30
2022-09-02T03:20:59.750Z,350.10
2022-09-02T03:21:59.734Z,358.00
2022-09-02T03:22:59.728Z,372.40
2022-09-02T03:23:59.723Z,374.50
2022-09-02T03:24:59.772Z,376.90
2022-09-02T03:25:59.723Z,396.00
2022-09-02T03:26:59.711Z,387.20
2022-09-02T03:27:59.685Z,388.50
2022-09-02T03:28:59.679Z,391.70
2022-09-02T03:29:59.699Z,375.40
2022-09-02T03:30:59.676Z,385.80
2022-09-02T03:31:59.627Z,380.00
2022-09-02T03:33:03.849Z,377.10
2022-09-02T03:33:59.616Z,374.60
2022-09-02T03:34:59.644Z,371.70
2022-09-02T03:35:59.592Z,362.30
2022-09-02T03:36:59.572Z,372.00
2022-09-02T03:37:59.582Z,504.70
2022-09-02T03:38:59.563Z,493.40
2022-09-02T03:39:59.585Z,410.40
2022-09-02T03:40:59.559Z,402.90
2022-09-02T03:41:59.509Z,440.70
2022-09-02T03:43:00.555Z,409.80
2022-09-02T03:43:59.488Z,439.50
2022-09-02T03:44:59.521Z,403.30
2022-09-02T03:45:59.524Z,438.70
2022-09-02T03:46:59.457Z,451.90
2022-09-02T03:47:59.445Z,449.20
2022-09-02T03:48:59.433Z,425.30
2022-09-02T03:49:59.455Z,425.10
2022-09-02T03:50:59.422Z,443.90
2022-09-02T03:51:59.417Z,446.40
2022-09-02T03:52:59.399Z,421.70
2022-09-02T03:53:59.367Z,388.40
2022-09-02T03:54:59.404Z,389.30
2022-09-02T03:55:59.346Z,419.40
2022-09-02T03:56:59.337Z,447.80
2022-09-02T03:57:59.327Z,456.80
2022-09-02T03:58:59.321Z,448.20
2022-09-02T03:59:59.340Z,442.40
2022-09-02T04:00:59.301Z,442.70
2022-09-02T04:01:59.391Z,439.40
2022-09-02T04:02:59.367Z,429.30
2022-09-02T04:03:59.273Z,417.30
2022-09-02T04:04:59.290Z,431.70
2022-09-02T04:05:59.230Z,420.10
2022-09-02T04:06:59.231Z,402.30
2022-09-02T04:07:59.203Z,443.80
2022-09-02T04:08:59.192Z,450.50
2022-09-02T04:09:59.232Z,459.90
2022-09-02T04:10:59.192Z,416.80
2022-09-02T04:11:59.169Z,428.40
2022-09-02T04:12:59.162Z,439.10
2022-09-02T04:13:59.160Z,432.90
2022-09-02T04:14:59.177Z,419.90
2022-09-02T04:16:01.905Z,412.90
2022-09-02T04:16:59.121Z,373.70
2022-09-02T04:17:59.142Z,374.70
2022-09-02T04:18:59.101Z,371.40
2022-09-02T04:19:59.118Z,373.40
2022-09-02T04:20:59.083Z,382.90
2022-09-02T04:21:59.068Z,375.50
2022-09-02T04:22:59.050Z,377.20
2022-09-02T04:23:59.052Z,378.20
2022-09-02T04:24:59.063Z,381.20
2022-09-02T04:25:59.032Z,393.50
2022-09-02T04:27:03.919Z,396.00
2022-09-02T04:27:59.996Z,395.50
2022-09-02T04:28:58.978Z,396.20
2022-09-02T04:29:59.015Z,393.30
2022-09-02T04:30:59.017Z,380.10
2022-09-02T04:31:58.937Z,385.70
2022-09-02T04:32:58.913Z,386.10
2022-09-02T04:33:58.901Z,394.00
2022-09-02T04:34:58.947Z,391.80
2022-09-02T04:35:58.901Z,396.50
2022-09-02T04:36:58.905Z,380.20
2022-09-02T04:37:58.882Z,369.10
2022-09-02T04:38:58.854Z,385.40
2022-09-02T04:39:58.892Z,377.60
2022-09-02T04:40:58.831Z,384.80
2022-09-02T04:41:58.846Z,370.70
2022-09-02T04:42:58.815Z,367.00
2022-09-02T04:43:58.826Z,367.50
2022-09-02T04:44:58.813Z,363.20
2022-09-02T04:45:58.834Z,360.70
2022-09-02T04:46:58.780Z,365.60
2022-09-02T04:47:58.761Z,357.70
2022-09-02T04:48:58.759Z,356.50
2022-09-02T04:49:58.801Z,357.10
2022-09-02T04:50:58.719Z,360.20
2022-09-02T04:51:58.719Z,350.80
2022-09-02T04:52:58.698Z,343.00
2022-09-02T04:53:58.701Z,362.10
2022-09-02T04:54:58.717Z,376.60
2022-09-02T04:55:58.676Z,376.50
2022-09-02T04:56:58.659Z,388.70
2022-09-02T04:57:58.640Z,390.70
2022-09-02T04:58:58.629Z,369.30
2022-09-02T04:59:58.663Z,397.90
2022-09-02T05:00:58.617Z,353.70
2022-09-02T05:01:58.729Z,345.70
2022-09-02T05:02:58.673Z,345.60
2022-09-02T05:03:58.590Z,422.60
2022-09-02T05:04:58.598Z,479.10
2022-09-02T05:05:58.561Z,544.30
2022-09-02T05:06:58.568Z,581.00
2022-09-02T05:07:58.521Z,565.70
2022-09-02T05:08:58.506Z,552.70
2022-09-02T05:09:58.538Z,532.80
2022-09-02T05:10:58.476Z,510.10
2022-09-02T05:11:58.506Z,480.10
2022-09-02T05:12:58.489Z,480.30
2022-09-02T05:13:58.461Z,488.90
2022-09-02T05:14:58.459Z,465.00
2022-09-02T05:15:58.516Z,449.00
2022-09-02T05:16:58.430Z,437.50
2022-09-02T05:17:58.424Z,435.60
2022-09-02T05:18:58.418Z,441.40
2022-09-02T05:19:58.409Z,440.70
2022-09-02T05:20:58.418Z,438.60
2022-09-02T05:21:58.372Z,450.40
2022-09-02T05:22:58.361Z,459.50
2022-09-02T05:23:58.360Z,479.50
2022-09-02T05:24:58.339Z,501.40
2022-09-02T05:25:58.357Z,501.40
2022-09-02T05:26:58.320Z,501.30
2022-09-02T05:27:58.317Z,466.20
2022-09-02T05:28:58.298Z,418.10
2022-09-02T05:29:58.292Z,381.30
2022-09-02T05:30:58.342Z,370.30
2022-09-02T05:31:58.270Z,335.70
2022-09-02T05:32:58.264Z,233.60
2022-09-02T05:33:58.250Z,190.50
2022-09-02T05:34:58.251Z,168.80
2022-09-02T05:35:58.263Z,162.60
2022-09-02T05:36:58.194Z,172.20
2022-09-02T05:38:00.924Z,173.90
2022-09-02T05:38:58.174Z,176.30
2022-09-02T05:39:58.177Z,387.90
2022-09-02T05:40:58.231Z,410.10
2022-09-02T05:41:58.163Z,395.60
2022-09-02T05:42:58.158Z,395.00
2022-09-02T05:44:01.358Z,395.10
2022-09-02T05:44:59.123Z,388.20
2022-09-02T05:45:58.246Z,190.70
2022-09-02T05:46:58.081Z,132.00
2022-09-02T05:47:58.100Z,397.80
2022-09-02T05:48:58.062Z,380.00
2022-09-02T05:49:58.057Z,371.80
2022-09-02T05:50:58.603Z,359.90
2022-09-02T05:51:58.040Z,351.20
2022-09-02T05:52:58.007Z,328.10
2022-09-02T05:53:58.028Z,321.30
2022-09-02T05:54:57.998Z,304.70
2022-09-02T05:55:58.019Z,284.20
2022-09-02T05:56:57.983Z,111.60
2022-09-02T05:57:57.967Z,110.90
2022-09-02T05:58:57.945Z,129.10
2022-09-02T05:59:57.961Z,134.10
2022-09-02T06:00:57.966Z,147.20
2022-09-02T06:01:57.977Z,174.40
2022-09-02T06:02:57.986Z,264.00
2022-09-02T06:03:57.905Z,261.70
2022-09-02T06:04:57.910Z,308.70
2022-09-02T06:06:00.553Z,295.10
2022-09-02T06:06:58.864Z,232.70
2022-09-02T06:07:57.849Z,207.00
2022-09-02T06:08:57.834Z,245.90
2022-09-02T06:09:57.864Z,175.50
2022-09-02T06:10:57.855Z,177.30
2022-09-02T06:11:57.821Z,240.60
2022-09-02T06:12:57.805Z,165.30
2022-09-02T06:13:57.777Z,256.10
2022-09-02T06:14:57.774Z,303.20
2022-09-02T06:15:57.891Z,310.00
2022-09-02T06:16:57.755Z,398.20
2022-09-02T06:17:57.744Z,371.20
2022-09-02T06:18:57.710Z,286.20
2022-09-02T06:19:57.705Z,376.80
2022-09-02T06:20:57.724Z,365.20
2022-09-02T06:21:57.684Z,397.20
2022-09-02T06:22:57.663Z,412.40
2022-09-02T06:23:57.653Z,424.90
2022-09-02T06:24:57.658Z,189.70
2022-09-02T06:25:57.683Z,128.10
2022-09-02T06:26:57.638Z,143.30
2022-09-02T06:27:57.637Z,81.10
2022-09-02T06:28:57.605Z,116.50
2022-09-02T06:29:57.597Z,144.60
2022-09-02T06:30:57.688Z,130.40
2022-09-02T06:31:57.583Z,260.00
2022-09-02T06:32:57.590Z,287.60
2022-09-02T06:33:57.557Z,308.80
2022-09-02T06:34:57.550Z,214.70
2022-09-02T06:35:57.556Z,102.10
2022-09-02T06:36:57.561Z,154.20
2022-09-02T06:37:57.506Z,258.20
2022-09-02T06:38:57.516Z,257.00
2022-09-02T06:39:57.511Z,256.70
2022-09-02T06:40:57.541Z,172.80
2022-09-02T06:41:57.489Z,38.50
2022-09-02T06:42:57.449Z,39.20
2022-09-02T06:43:57.437Z,61.20
2022-09-02T06:44:57.439Z,72.00
2022-09-02T06:45:57.517Z,74.10
2022-09-02T06:46:57.426Z,71.50
2022-09-02T06:47:57.397Z,73.90
2022-09-02T06:48:57.400Z,100.50
2022-09-02T06:49:57.376Z,87.60
2022-09-02T06:50:57.393Z,42.80
2022-09-02T06:51:57.360Z,21.40
2022-09-02T06:52:57.327Z,22.50
2022-09-02T06:53:57.351Z,21.50
2022-09-02T06:54:57.304Z,24.80
2022-09-02T06:55:57.321Z,24.80
2022-09-02T06:56:57.277Z,24.60
2022-09-02T06:57:57.284Z,24.20
2022-09-02T06:58:57.268Z,24.10
2022-09-02T07:00:02.323Z,22.70
2022-09-02T07:00:58.324Z,21.90
2022-09-02T07:01:57.386Z,22.70
2022-09-02T07:02:57.244Z,17.80
2022-09-02T07:03:57.220Z,21.70
2022-09-02T07:04:57.786Z,25.30
2022-09-02T07:05:57.224Z,28.30
2022-09-02T07:06:57.170Z,32.70
2022-09-02T07:07:57.182Z,20.20
2022-09-02T07:08:57.157Z,11.70
2022-09-02T07:09:57.172Z,9.30
2022-09-02T07:10:57.178Z,9.70
2022-09-02T07:11:59.867Z,12.30
2022-09-02T07:12:58.110Z,15.60
2022-09-02T07:13:57.118Z,15.00
2022-09-02T07:14:57.105Z,17.60
2022-09-02T07:15:57.163Z,20.30
2022-09-02T07:16:57.122Z,13.50
2022-09-02T07:17:57.063Z,13.00
2022-09-02T07:18:57.070Z,13.90
2022-09-02T07:19:57.055Z,17.80
2022-09-02T07:20:57.060Z,16.50
2022-09-02T07:21:57.018Z,11.20
2022-09-02T07:22:57.103Z,9.80
2022-09-02T07:23:57.001Z,9.60
2022-09-02T07:24:56.966Z,10.80
2022-09-02T07:25:57.010Z,10.40
2022-09-02T07:26:56.950Z,10.90
2022-09-02T07:27:56.941Z,10.60
2022-09-02T07:28:56.942Z,9.60
2022-09-02T07:29:56.909Z,9.10
2022-09-02T07:30:59.868Z,10.40
2022-09-02T07:31:56.903Z,10.30
2022-09-02T07:32:56.885Z,9.70
2022-09-02T07:33:56.881Z,9.00
2022-09-02T07:34:56.869Z,8.90
2022-09-02T07:35:56.902Z,9.10
2022-09-02T07:37:00.507Z,9.40
2022-09-02T07:37:57.835Z,9.00
2022-09-02T07:38:56.837Z,10.30
2022-09-02T07:39:56.821Z,10.50
2022-09-02T07:40:57.228Z,8.90
2022-09-02T07:41:56.806Z,9.20
2022-09-02T07:43:59.511Z,8.80
2022-09-02T07:44:56.750Z,8.90
2022-09-02T07:45:56.824Z,9.80
2022-09-02T07:46:56.741Z,10.40
2022-09-02T07:47:56.733Z,9.60
2022-09-02T07:48:56.720Z,10.30
2022-09-02T07:50:57.714Z,9.70
2022-09-02T07:51:56.691Z,8.70
2022-09-02T07:52:56.688Z,8.40
2022-09-02T07:53:56.662Z,9.40
2022-09-02T07:54:56.641Z,9.40
2022-09-02T07:55:56.657Z,11.30
2022-09-02T07:56:56.616Z,11.50
2022-09-02T07:57:56.617Z,10.40
2022-09-02T07:58:56.598Z,10.30
2022-09-02T07:59:56.621Z,10.00
2022-09-02T08:00:56.662Z,10.20
2022-09-02T08:01:56.620Z,10.30
2022-09-02T08:02:56.599Z,10.70
2022-09-02T08:03:56.534Z,10.60
2022-09-02T08:04:56.541Z,11.60
2022-09-02T08:05:56.556Z,10.80
2022-09-02T08:06:56.510Z,10.00
2022-09-02T08:07:56.511Z,9.50
2022-09-02T08:08:56.509Z,9.50
2022-09-02T08:09:56.481Z,8.90
2022-09-02T08:10:56.570Z,8.70
2022-09-02T08:11:56.483Z,9.00
2022-09-02T08:12:56.445Z,9.00
2022-09-02T08:13:56.450Z,9.40
2022-09-02T08:14:56.419Z,8.30
2022-09-02T08:15:56.450Z,8.40
2022-09-02T08:16:56.430Z,8.40
2022-09-02T08:17:56.407Z,8.80
2022-09-02T08:18:56.393Z,8.60
2022-09-02T08:19:56.361Z,9.30
2022-09-02T08:20:56.359Z,8.30
2022-09-02T08:21:56.390Z,8.50
2022-09-02T08:23:05.848Z,8.50
2022-09-02T08:23:57.317Z,8.80
2022-09-02T08:24:56.312Z,8.70
2022-09-02T08:25:56.292Z,9.10
2022-09-02T08:26:56.319Z,9.00
2022-09-02T08:28:57.257Z,8.20
2022-09-02T08:29:56.269Z,8.30
2022-09-02T08:30:56.238Z,7.60
2022-09-02T08:31:56.306Z,7.90
2022-09-02T08:32:56.234Z,7.70
2022-09-02T08:33:56.216Z,8.10
2022-09-02T08:34:56.198Z,7.90
2022-09-02T08:35:56.201Z,8.30
2022-09-02T08:36:57.095Z,8.20
2022-09-02T08:37:56.154Z,8.30
2022-09-02T08:38:56.162Z,8.80
2022-09-02T08:39:56.125Z,8.60
2022-09-02T08:40:56.178Z,8.90
2022-09-02T08:41:56.202Z,8.60
2022-09-02T08:42:56.131Z,8.70
2022-09-02T08:43:56.096Z,8.80
2022-09-02T08:44:56.109Z,9.20
2022-09-02T08:45:56.138Z,9.90
2022-09-02T08:46:56.097Z,9.60
2022-09-02T08:47:56.105Z,9.90
2022-09-02T08:48:56.034Z,10.00
2022-09-02T08:49:56.027Z,10.10
2022-09-02T08:50:56.025Z,9.10
2022-09-02T08:51:56.045Z,9.70
2022-09-02T08:52:56.005Z,9.60
2022-09-02T08:53:55.995Z,9.50
2022-09-02T08:54:55.999Z,9.60
2022-09-02T08:55:55.957Z,9.50
2022-09-02T08:56:56.001Z,9.40
2022-09-02T08:57:56.021Z,9.40
2022-09-02T08:58:56.649Z,10.00
2022-09-02T08:59:55.917Z,9.90
2022-09-02T09:00:55.956Z,9.90
2022-09-02T09:01:56.002Z,10.30
2022-09-02T09:02:55.930Z,10.10
2022-09-02T09:03:55.905Z,9.70
2022-09-02T09:04:55.882Z,9.60
2022-09-02T09:05:55.857Z,10.40
2022-09-02T09:06:55.884Z,9.90
2022-09-02T09:07:55.829Z,9.60
2022-09-02T09:08:55.860Z,9.20
2022-09-02T09:09:55.832Z,8.90
2022-09-02T09:10:55.799Z,9.80
2022-09-02T09:11:55.813Z,9.30
2022-09-02T09:12:55.783Z,9.80
2022-09-02T09:13:55.756Z,9.70
2022-09-02T09:14:55.773Z,9.40
2022-09-02T09:15:55.787Z,10.20
2022-09-02T09:16:55.866Z,9.40
2022-09-02T09:17:55.751Z,9.40
2022-09-02T09:18:55.725Z,9.40
2022-09-02T09:19:55.709Z,10.00
2022-09-02T09:20:55.698Z,10.00
2022-09-02T09:21:55.728Z,10.20
2022-09-02T09:22:55.698Z,10.00
2022-09-02T09:23:55.665Z,10.40
2022-09-02T09:24:55.685Z,10.50
2022-09-02T09:25:55.646Z,11.10
2022-09-02T09:26:55.672Z,11.10
2022-09-02T09:27:55.624Z,11.70
2022-09-02T09:28:55.642Z,11.60
2022-09-02T09:29:55.606Z,11.50
2022-09-02T09:30:55.612Z,11.00
2022-09-02T09:31:55.612Z,12.40
2022-09-02T09:32:55.606Z,12.60
2022-09-02T09:33:55.562Z,13.00
2022-09-02T09:34:55.540Z,12.70
2022-09-02T09:35:55.541Z,13.00
2022-09-02T09:36:55.532Z,12.90
2022-09-02T09:37:55.545Z,12.30
2022-09-02T09:38:55.500Z,12.40
2022-09-02T09:39:55.511Z,12.80
2022-09-02T09:40:55.471Z,12.50
2022-09-02T09:41:55.473Z,13.20
2022-09-02T09:42:55.603Z,13.60
2022-09-02T09:43:55.463Z,12.10
2022-09-02T09:44:55.467Z,11.70
2022-09-02T09:45:55.451Z,11.40
2022-09-02T09:46:55.436Z,11.40
2022-09-02T09:47:58.552Z,11.70
2022-09-02T09:48:55.386Z,11.60
2022-09-02T09:49:55.401Z,11.50
2022-09-02T09:50:55.358Z,11.80
2022-09-02T09:51:55.369Z,11.20
2022-09-02T09:52:55.376Z,11.30
2022-09-02T09:53:55.365Z,11.30
2022-09-02T09:54:55.335Z,11.40
2022-09-02T09:55:55.318Z,11.50
2022-09-02T09:56:55.324Z,11.20
2022-09-02T09:57:55.327Z,11.70
2022-09-02T09:58:55.274Z,11.90
2022-09-02T09:59:55.287Z,12.70
2022-09-02T10:00:55.295Z,12.90
2022-09-02T10:01:55.306Z,12.70
2022-09-02T10:02:55.286Z,12.40
2022-09-02T10:03:55.241Z,12.70
2022-09-02T10:04:55.226Z,12.60
2022-09-02T10:05:55.240Z,12.70
2022-09-02T10:06:55.219Z,12.40
2022-09-02T10:07:55.223Z,12.10
2022-09-02T10:08:55.178Z,12.40
2022-09-02T10:09:55.174Z,11.30
2022-09-02T10:10:55.210Z,9.20
2022-09-02T10:11:55.150Z,9.10
2022-09-02T10:12:55.193Z,8.40
2022-09-02T10:13:55.151Z,8.20
2022-09-02T10:14:55.136Z,8.30
2022-09-02T10:15:55.168Z,8.90
2022-09-02T10:16:55.158Z,8.40
2022-09-02T10:17:55.125Z,8.20
2022-09-02T10:18:55.089Z,8.10
2022-09-02T10:19:55.057Z,8.00
2022-09-02T10:21:56.037Z,8.00
2022-09-02T10:22:59.404Z,8.00
2022-09-02T10:23:56.019Z,8.20
2022-09-02T10:24:55.005Z,8.80
2022-09-02T10:25:54.997Z,9.30
2022-09-02T10:26:55.007Z,10.80
2022-09-02T10:27:55.001Z,10.40
2022-09-02T10:28:54.964Z,11.70
2022-09-02T10:29:54.963Z,13.30
2022-09-02T10:30:54.958Z,13.40
2022-09-02T10:31:54.948Z,11.00
2022-09-02T10:32:54.936Z,9.80
2022-09-02T10:33:54.923Z,9.10
2022-09-02T10:34:54.907Z,9.30
2022-09-02T10:35:54.898Z,9.60
2022-09-02T10:36:54.889Z,9.60
2022-09-02T10:37:54.916Z,9.00
2022-09-02T10:38:54.873Z,9.40
2022-09-02T10:39:54.860Z,9.40
2022-09-02T10:40:54.874Z,9.00
2022-09-02T10:41:54.811Z,8.70
2022-09-02T10:42:54.853Z,9.00
2022-09-02T10:43:57.409Z,8.10
2022-09-02T10:44:58.817Z,8.00
2022-09-02T10:45:54.769Z,8.40
2022-09-02T10:46:54.835Z,7.80
2022-09-02T10:47:54.813Z,8.20
2022-09-02T10:48:54.747Z,8.70
2022-09-02T10:49:54.765Z,8.60
2022-09-02T10:50:54.718Z,9.50
2022-09-02T10:51:54.713Z,10.10
2022-09-02T10:52:54.749Z,9.80
2022-09-02T10:53:54.695Z,10.70
2022-09-02T10:54:54.665Z,12.00
2022-09-02T10:55:54.688Z,14.50
2022-09-02T10:56:54.691Z,13.50
2022-09-02T10:57:54.691Z,14.30
2022-09-02T10:58:54.658Z,15.20
2022-09-02T10:59:54.606Z,15.80
2022-09-02T11:00:54.671Z,16.00
2022-09-02T11:01:54.592Z,14.80
2022-09-02T11:02:54.645Z,14.40
2022-09-02T11:03:54.635Z,13.60
2022-09-02T11:04:54.956Z,14.00
2022-09-02T11:05:54.550Z,14.80
2022-09-02T11:07:03.267Z,16.10
2022-09-02T11:07:55.563Z,15.40
2022-09-02T11:08:54.547Z,14.50
2022-09-02T11:09:54.516Z,14.50
2022-09-02T11:10:54.523Z,14.20
2022-09-02T11:11:57.063Z,13.30
2022-09-02T11:12:54.593Z,13.10
2022-09-02T11:13:54.479Z,12.10
2022-09-02T11:14:54.458Z,11.70
2022-09-02T11:15:54.463Z,12.40
2022-09-02T11:16:54.474Z,12.40
2022-09-02T11:17:54.463Z,14.00
2022-09-02T11:18:54.431Z,15.40
2022-09-02T11:19:54.412Z,13.10
2022-09-02T11:20:54.400Z,12.60
2022-09-02T11:21:54.384Z,12.10
2022-09-02T11:22:54.572Z,11.60
2022-09-02T11:23:54.362Z,10.70
2022-09-02T11:24:54.347Z,14.10
2022-09-02T11:25:54.343Z,14.50
2022-09-02T11:26:54.323Z,13.70
2022-09-02T11:27:54.342Z,13.10
2022-09-02T11:28:54.302Z,14.30
2022-09-02T11:29:54.314Z,18.20
2022-09-02T11:30:54.293Z,15.70
2022-09-02T11:31:54.245Z,11.80
2022-09-02T11:32:54.270Z,9.20
2022-09-02T11:33:54.263Z,7.60
2022-09-02T11:34:54.236Z,7.80
2022-09-02T11:35:54.298Z,8.00
2022-09-02T11:36:54.233Z,8.20
2022-09-02T11:37:54.251Z,8.00
2022-09-02T11:38:54.214Z,8.20
2022-09-02T11:40:02.577Z,8.70
2022-09-02T11:41:55.210Z,9.40
2022-09-02T11:42:54.184Z,9.20
2022-09-02T11:44:54.133Z,9.00
2022-09-02T11:45:54.161Z,8.60
2022-09-02T11:46:54.169Z,8.70
2022-09-02T11:47:54.097Z,8.80
2022-09-02T11:48:54.140Z,8.90
2022-09-02T11:49:54.100Z,10.10
2022-09-02T11:50:54.072Z,9.70
2022-09-02T11:51:54.056Z,10.80
2022-09-02T11:52:54.044Z,10.70
2022-09-02T11:53:55.998Z,9.70
2022-09-02T11:54:54.020Z,9.50
2022-09-02T11:55:54.019Z,9.70
2022-09-02T11:56:53.994Z,9.40
2022-09-02T11:57:54.001Z,10.40
2022-09-02T11:58:54.049Z,11.10
2022-09-02T11:59:53.973Z,10.70
2022-09-02T12:00:53.964Z,9.40
2022-09-02T12:01:53.926Z,8.90
2022-09-02T12:02:53.945Z,9.00
2022-09-02T12:04:34.433Z,9.30
2022-09-02T12:05:00.511Z,9.70
2022-09-02T12:05:54.938Z,10.00
2022-09-02T12:06:54.025Z,9.50
2022-09-02T12:07:53.866Z,10.40
2022-09-02T12:08:53.893Z,10.80
2022-09-02T12:09:53.837Z,11.20
2022-09-02T12:10:53.842Z,11.70
2022-09-02T12:11:53.843Z,11.00
2022-09-02T12:12:53.820Z,10.50
2022-09-02T12:13:53.857Z,11.10
2022-09-02T12:14:53.809Z,12.30
2022-09-02T12:15:53.851Z,13.50
2022-09-02T12:16:53.787Z,8.10
2022-09-02T12:17:53.793Z,8.10
2022-09-02T12:18:53.813Z,8.00
2022-09-02T12:19:53.776Z,8.40
2022-09-02T12:20:53.740Z,7.50
2022-09-02T12:21:53.719Z,8.10
2022-09-02T12:22:53.713Z,8.70
2022-09-02T12:23:53.774Z,8.40
2022-09-02T12:24:53.707Z,8.60
2022-09-02T12:25:53.670Z,8.50
2022-09-02T12:26:53.705Z,8.50
2022-09-02T12:27:53.669Z,9.50
2022-09-02T12:28:53.704Z,9.30
2022-09-02T12:29:53.659Z,9.20
2022-09-02T12:30:53.775Z,8.90
2022-09-02T12:31:53.713Z,8.40
2022-09-02T12:32:53.622Z,8.70
2022-09-02T12:33:53.633Z,9.20
2022-09-02T12:34:53.614Z,9.40
2022-09-02T12:35:53.560Z,9.30
2022-09-02T12:36:53.580Z,9.80
2022-09-02T12:37:53.946Z,10.50
2022-09-02T12:38:53.602Z,10.20
2022-09-02T12:39:53.552Z,10.70
2022-09-02T12:40:53.602Z,9.90
2022-09-02T12:41:53.502Z,9.90
2022-09-02T12:42:53.482Z,9.60
2022-09-02T12:43:53.516Z,9.70
2022-09-02T12:44:53.478Z,10.90
2022-09-02T12:45:53.486Z,10.80
2022-09-02T12:46:53.538Z,9.60
2022-09-02T12:47:53.445Z,9.50
2022-09-02T12:48:53.486Z,8.90
2022-09-02T12:49:53.415Z,8.70
2022-09-02T12:50:53.405Z,8.40